KPF51Z LFMN-LSZH
Flight info
| Callsign | KPF51Z |
|---|---|
| Flight time | 0h 44m |
| Altitude | 18000 |
| Route | BASIP Y15 ANAKI DCT CANNE Z651 KELIP |
| Aircraft | CL60/M-SBDE1E2E3FGHIJ1J4J5J7M3RWXYZ/LB1V1D1 |
Departure
| Time | 2026-05-04 15:20 |
|---|---|
| Airport | Nice-Côte d'Azur Airport (LFMN) |
Arrival
| Time | 2026-05-04 16:04 |
|---|---|
| Airport | Zürich Airport (LSZH) |
| Time | Latitude | Longitude | Altitude | Speed | Heading |
|---|---|---|---|---|---|
| 2026-05-04 14:44 | 43.65722 | 7.20679 | 27 ft | 0 kts | 313° |
| 2026-05-04 15:16 | 43.65729 | 7.20591 | 27 ft | 10 kts | 191° |
| 2026-05-04 15:17 | 43.65665 | 7.20622 | 27 ft | 10 kts | 135° |
| 2026-05-04 15:17 | 43.65501 | 7.20700 | 26 ft | 15 kts | 170° |
| 2026-05-04 15:17 | 43.65377 | 7.20732 | 25 ft | 20 kts | 164° |
| 2026-05-04 15:18 | 43.65236 | 7.20697 | 25 ft | 21 kts | 224° |
| 2026-05-04 15:18 | 43.65116 | 7.20532 | 25 ft | 26 kts | 225° |
| 2026-05-04 15:18 | 43.64981 | 7.20345 | 25 ft | 19 kts | 226° |
| 2026-05-04 15:19 | 43.64820 | 7.20249 | 24 ft | 10 kts | 134° |
| 2026-05-04 15:19 | 43.64773 | 7.20320 | 24 ft | 7 kts | 129° |
| 2026-05-04 15:19 | 43.64855 | 7.20497 | 24 ft | 55 kts | 46° |
| 2026-05-04 15:20 | 43.65346 | 7.21169 | 28 ft | 140 kts | 46° |
| 2026-05-04 15:20 | 43.66082 | 7.22249 | 621 ft | 164 kts | 52° |
| 2026-05-04 15:20 | 43.66656 | 7.23649 | 1411 ft | 180 kts | 81° |
| 2026-05-04 15:20 | 43.66345 | 7.25347 | 2250 ft | 196 kts | 126° |
| 2026-05-04 15:21 | 43.65351 | 7.26627 | 3169 ft | 210 kts | 137° |
| 2026-05-04 15:21 | 43.64242 | 7.28075 | 4023 ft | 225 kts | 132° |
| 2026-05-04 15:21 | 43.63051 | 7.31729 | 6665 ft | 221 kts | 87° |
| 2026-05-04 15:22 | 43.63427 | 7.33771 | 7766 ft | 229 kts | 72° |
| 2026-05-04 15:22 | 43.63988 | 7.35846 | 8818 ft | 237 kts | 72° |
| 2026-05-04 15:22 | 43.65151 | 7.40206 | 10954 ft | 251 kts | 72° |
| 2026-05-04 15:23 | 43.65754 | 7.42476 | 11954 ft | 257 kts | 72° |
| 2026-05-04 15:23 | 43.66366 | 7.44784 | 12943 ft | 264 kts | 72° |
| 2026-05-04 15:23 | 43.66994 | 7.47159 | 13867 ft | 271 kts | 72° |
| 2026-05-04 15:23 | 43.67651 | 7.49634 | 14783 ft | 278 kts | 71° |
| 2026-05-04 15:24 | 43.69168 | 7.55351 | 14894 ft | 357 kts | 71° |
| 2026-05-04 15:24 | 43.70985 | 7.62193 | 15925 ft | 392 kts | 71° |
| 2026-05-04 15:25 | 43.71925 | 7.65732 | 16739 ft | 398 kts | 71° |
| 2026-05-04 15:25 | 43.72893 | 7.69341 | 17579 ft | 402 kts | 69° |
| 2026-05-04 15:25 | 43.74263 | 7.72669 | 18382 ft | 408 kts | 52° |
| 2026-05-04 15:26 | 43.78067 | 7.78660 | 19866 ft | 418 kts | 49° |
| 2026-05-04 15:26 | 43.80004 | 7.81690 | 20578 ft | 423 kts | 49° |
| 2026-05-04 15:26 | 43.83919 | 7.87827 | 21946 ft | 432 kts | 48° |
| 2026-05-04 15:27 | 43.85916 | 7.90962 | 22610 ft | 435 kts | 48° |
| 2026-05-04 15:27 | 43.89947 | 7.97304 | 23865 ft | 443 kts | 48° |
| 2026-05-04 15:28 | 43.94064 | 8.03797 | 24940 ft | 454 kts | 47° |
| 2026-05-04 15:28 | 43.96187 | 8.07151 | 25427 ft | 459 kts | 47° |
| 2026-05-04 15:28 | 44.00447 | 8.13895 | 26402 ft | 468 kts | 47° |
| 2026-05-04 15:29 | 44.02599 | 8.17306 | 26822 ft | 474 kts | 47° |
| 2026-05-04 15:30 | 44.08947 | 8.33565 | 28440 ft | 492 kts | 67° |
| 2026-05-04 15:30 | 44.12825 | 8.47030 | 29511 ft | 502 kts | 67° |
| 2026-05-04 15:31 | 44.15414 | 8.56054 | 30361 ft | 503 kts | 68° |
| 2026-05-04 15:31 | 44.16736 | 8.60549 | 30920 ft | 500 kts | 64° |
| 2026-05-04 15:32 | 44.23599 | 8.70949 | 32266 ft | 485 kts | 28° |
| 2026-05-04 15:32 | 44.29727 | 8.74541 | 32972 ft | 473 kts | 8° |
| 2026-05-04 15:33 | 44.36162 | 8.75370 | 33623 ft | 464 kts | 355° |
| 2026-05-04 15:34 | 44.45971 | 8.75451 | 34082 ft | 474 kts | 355° |
| 2026-05-04 15:34 | 44.55924 | 8.75700 | 34080 ft | 477 kts | 356° |
| 2026-05-04 15:35 | 44.65934 | 8.76178 | 34069 ft | 477 kts | 358° |
| 2026-05-04 15:36 | 44.75882 | 8.76915 | 34064 ft | 478 kts | 358° |
| 2026-05-04 15:36 | 44.82557 | 8.77421 | 34051 ft | 478 kts | 359° |
| 2026-05-04 15:37 | 44.89220 | 8.77931 | 34045 ft | 477 kts | 359° |
| 2026-05-04 15:37 | 44.95846 | 8.78441 | 34043 ft | 478 kts | 359° |
| 2026-05-04 15:38 | 45.02494 | 8.78958 | 34049 ft | 477 kts | 359° |
| 2026-05-04 15:38 | 45.09123 | 8.79475 | 34046 ft | 477 kts | 359° |
| 2026-05-04 15:39 | 45.15804 | 8.79999 | 34045 ft | 478 kts | 359° |
| 2026-05-04 15:40 | 45.25806 | 8.80787 | 34048 ft | 479 kts | 359° |
| 2026-05-04 15:40 | 45.32481 | 8.81316 | 34054 ft | 478 kts | 359° |
| 2026-05-04 15:41 | 45.39160 | 8.81846 | 34058 ft | 478 kts | 359° |
| 2026-05-04 15:41 | 45.45799 | 8.82375 | 34061 ft | 478 kts | 359° |
| 2026-05-04 15:42 | 45.52423 | 8.82905 | 34059 ft | 478 kts | 359° |
| 2026-05-04 15:42 | 45.59074 | 8.83437 | 34070 ft | 478 kts | 359° |
| 2026-05-04 15:43 | 45.65749 | 8.83973 | 34066 ft | 479 kts | 359° |
| 2026-05-04 15:43 | 45.72327 | 8.84503 | 34079 ft | 479 kts | 359° |
| 2026-05-04 15:44 | 45.78975 | 8.85039 | 34072 ft | 479 kts | 360° |
| 2026-05-04 15:44 | 45.85666 | 8.85581 | 34069 ft | 479 kts | 360° |
| 2026-05-04 15:45 | 45.92318 | 8.86120 | 34075 ft | 478 kts | 0° |
| 2026-05-04 15:45 | 45.99013 | 8.86665 | 34072 ft | 478 kts | 360° |
| 2026-05-04 15:46 | 46.05655 | 8.87206 | 34086 ft | 478 kts | 360° |
| 2026-05-04 15:46 | 46.12307 | 8.87750 | 34083 ft | 478 kts | 360° |
| 2026-05-04 15:47 | 46.18960 | 8.87808 | 34090 ft | 474 kts | 351° |
| 2026-05-04 15:47 | 46.22260 | 8.87309 | 33794 ft | 480 kts | 351° |
| 2026-05-04 15:47 | 46.25606 | 8.86801 | 33200 ft | 481 kts | 351° |
| 2026-05-04 15:47 | 46.28937 | 8.86299 | 32609 ft | 479 kts | 351° |
| 2026-05-04 15:48 | 46.32257 | 8.85797 | 32013 ft | 479 kts | 352° |
| 2026-05-04 15:48 | 46.35565 | 8.85298 | 31392 ft | 479 kts | 352° |
| 2026-05-04 15:48 | 46.42229 | 8.84290 | 30092 ft | 480 kts | 353° |
| 2026-05-04 15:49 | 46.45513 | 8.83793 | 29481 ft | 475 kts | 353° |
| 2026-05-04 15:49 | 46.48795 | 8.83297 | 28840 ft | 471 kts | 352° |
| 2026-05-04 15:49 | 46.52066 | 8.82803 | 28208 ft | 467 kts | 352° |
| 2026-05-04 15:49 | 46.55296 | 8.82312 | 27576 ft | 463 kts | 352° |
| 2026-05-04 15:50 | 46.58449 | 8.81835 | 26988 ft | 459 kts | 352° |
| 2026-05-04 15:50 | 46.61624 | 8.81353 | 26362 ft | 456 kts | 352° |
| 2026-05-04 15:50 | 46.64799 | 8.80871 | 25771 ft | 452 kts | 352° |
| 2026-05-04 15:50 | 46.67899 | 8.80401 | 25170 ft | 448 kts | 352° |
| 2026-05-04 15:51 | 46.70996 | 8.79930 | 24567 ft | 444 kts | 352° |
| 2026-05-04 15:51 | 46.74060 | 8.79463 | 23975 ft | 441 kts | 352° |
| 2026-05-04 15:51 | 46.77119 | 8.78997 | 23398 ft | 437 kts | 352° |
| 2026-05-04 15:51 | 46.80132 | 8.78538 | 22826 ft | 434 kts | 352° |
| 2026-05-04 15:52 | 46.83119 | 8.78082 | 22252 ft | 430 kts | 352° |
| 2026-05-04 15:52 | 46.86085 | 8.77629 | 21671 ft | 426 kts | 351° |
| 2026-05-04 15:52 | 46.89022 | 8.77180 | 21124 ft | 423 kts | 352° |
| 2026-05-04 15:52 | 46.91951 | 8.76731 | 20544 ft | 420 kts | 351° |
| 2026-05-04 15:53 | 46.94857 | 8.76286 | 19985 ft | 415 kts | 351° |
| 2026-05-04 15:53 | 46.97708 | 8.75841 | 19430 ft | 413 kts | 351° |
| 2026-05-04 15:53 | 47.00584 | 8.75385 | 18868 ft | 409 kts | 351° |
| 2026-05-04 15:53 | 47.03399 | 8.74939 | 18333 ft | 406 kts | 351° |
| 2026-05-04 15:54 | 47.06189 | 8.74513 | 17788 ft | 404 kts | 353° |
| 2026-05-04 15:54 | 47.09035 | 8.74664 | 17266 ft | 404 kts | 4° |
| 2026-05-04 15:54 | 47.11801 | 8.75110 | 16720 ft | 401 kts | 5° |
| 2026-05-04 15:54 | 47.14582 | 8.75550 | 16210 ft | 398 kts | 5° |
| 2026-05-04 15:55 | 47.17319 | 8.75982 | 15641 ft | 394 kts | 5° |
| 2026-05-04 15:55 | 47.19888 | 8.76387 | 15161 ft | 390 kts | 5° |
| 2026-05-04 15:55 | 47.22614 | 8.76828 | 14658 ft | 388 kts | 7° |
| 2026-05-04 15:55 | 47.25237 | 8.77795 | 13982 ft | 389 kts | 22° |
| 2026-05-04 15:56 | 47.27562 | 8.79745 | 13348 ft | 382 kts | 39° |
| 2026-05-04 15:56 | 47.29423 | 8.82514 | 12739 ft | 375 kts | 55° |
| 2026-05-04 15:56 | 47.30694 | 8.85806 | 11904 ft | 373 kts | 70° |
| 2026-05-04 15:56 | 47.31305 | 8.89464 | 11172 ft | 364 kts | 86° |
| 2026-05-04 15:57 | 47.31348 | 8.93075 | 10758 ft | 350 kts | 91° |
| 2026-05-04 15:57 | 47.31732 | 8.96609 | 10221 ft | 346 kts | 73° |
| 2026-05-04 15:57 | 47.32851 | 8.99731 | 9661 ft | 342 kts | 54° |
| 2026-05-04 15:57 | 47.34537 | 9.02100 | 9062 ft | 342 kts | 36° |
| 2026-05-04 15:58 | 47.36749 | 9.03444 | 8251 ft | 339 kts | 6° |
| 2026-05-04 15:58 | 47.38997 | 9.03145 | 7900 ft | 320 kts | 342° |
| 2026-05-04 15:58 | 47.40926 | 9.01587 | 7310 ft | 310 kts | 317° |
| 2026-05-04 15:58 | 47.42226 | 8.99142 | 6725 ft | 302 kts | 296° |
| 2026-05-04 15:59 | 47.42753 | 8.96225 | 6004 ft | 298 kts | 272° |
| 2026-05-04 15:59 | 47.42855 | 8.93168 | 5365 ft | 293 kts | 279° |
| 2026-05-04 15:59 | 47.43209 | 8.90275 | 5103 ft | 277 kts | 276° |
| 2026-05-04 15:59 | 47.43423 | 8.87489 | 5067 ft | 275 kts | 276° |
| 2026-05-04 16:00 | 47.43648 | 8.84685 | 5050 ft | 265 kts | 276° |
| 2026-05-04 16:00 | 47.43845 | 8.82071 | 4929 ft | 253 kts | 276° |
| 2026-05-04 16:00 | 47.44035 | 8.79491 | 4575 ft | 251 kts | 275° |
| 2026-05-04 16:00 | 47.44223 | 8.76940 | 4254 ft | 243 kts | 275° |
| 2026-05-04 16:01 | 47.44400 | 8.74514 | 3906 ft | 232 kts | 275° |
| 2026-05-04 16:01 | 47.44561 | 8.72333 | 4057 ft | 195 kts | 275° |
| 2026-05-04 16:01 | 47.44705 | 8.70344 | 3843 ft | 194 kts | 275° |
| 2026-05-04 16:01 | 47.44847 | 8.68364 | 3210 ft | 196 kts | 275° |
| 2026-05-04 16:02 | 47.44986 | 8.66430 | 2789 ft | 176 kts | 276° |
| 2026-05-04 16:02 | 47.45107 | 8.64770 | 2571 ft | 153 kts | 276° |
| 2026-05-04 16:02 | 47.45322 | 8.61750 | 2104 ft | 142 kts | 277° |
| 2026-05-04 16:03 | 47.45421 | 8.60319 | 1917 ft | 140 kts | 277° |
| 2026-05-04 16:03 | 47.45524 | 8.58890 | 1724 ft | 135 kts | 277° |
| 2026-05-04 16:03 | 47.45626 | 8.57484 | 1531 ft | 139 kts | 277° |
| 2026-05-04 16:03 | 47.45728 | 8.56087 | 1414 ft | 127 kts | 278° |
| 2026-05-04 16:04 | 47.45804 | 8.55044 | 1395 ft | 51 kts | 277° |
| 2026-05-04 16:04 | 47.45737 | 8.54856 | 1393 ft | 15 kts | 148° |
| 2026-05-04 16:04 | 47.45620 | 8.54932 | 1395 ft | 20 kts | 158° |
| 2026-05-04 16:05 | 47.45486 | 8.55031 | 1396 ft | 17 kts | 141° |
| 2026-05-04 16:05 | 47.45513 | 8.55106 | 1396 ft | 13 kts | 16° |
| 2026-05-04 16:05 | 47.45679 | 8.55264 | 1398 ft | 15 kts | 96° |
| 2026-05-04 16:06 | 47.45667 | 8.55445 | 1400 ft | 19 kts | 96° |
| 2026-05-04 16:06 | 47.45621 | 8.56095 | 1410 ft | 28 kts | 97° |
| 2026-05-04 16:07 | 47.45596 | 8.56458 | 1416 ft | 25 kts | 96° |
| 2026-05-04 16:07 | 47.45552 | 8.57025 | 1425 ft | 11 kts | 122° |
| 2026-05-04 16:08 | 47.45523 | 8.57149 | 1426 ft | 9 kts | 115° |
| 2026-05-04 16:08 | 47.45401 | 8.57268 | 1427 ft | 4 kts | 185° |
| 2026-05-04 16:09 | 47.45396 | 8.57267 | 1427 ft | 0 kts | 185° |